Time;durP1;ratioP1;P1;durP2;ratioP2;P2;SDS_P1;SDS_P2;PMS_P1;PMS_P2;Temp;Humidity;BMP_temperature;BMP_pressure;BME280_temperature;BME280_humidity;BME280_pressure;Samples;Min_cycle;Max_cycle;Signal;HPM_P1;HPM_P2
2022/01/16 00:00:19;;;;;;;19.00;9.58;;;;;;;-1.48;85.31;100266.38;1727234;81;21649;-83
2022/01/16 00:05:22;;;;;;;14.55;8.20;;;;;;;-1.52;85.28;100274.86;1738726;81;21040;-83
2022/01/16 00:07:48;;;;;;;18.23;8.73;;;;;;;-1.56;85.29;100269.28;1776039;79;21504;-83
2022/01/16 00:10:19;;;;;;;16.42;8.13;;;;;;;-1.59;85.25;100260.72;1762605;81;20954;-83
2022/01/16 00:12:48;;;;;;;13.15;8.23;;;;;;;-1.63;85.27;100252.55;1769793;79;20991;-83
2022/01/16 00:15:20;;;;;;;14.38;8.18;;;;;;;-1.64;85.34;100245.72;1772875;79;21929;-83
2022/01/16 00:18:19;;;;;;;14.00;7.15;;;;;;;-1.65;85.37;100251.70;1773258;79;21084;-83
2022/01/16 00:20:17;;;;;;;18.92;7.17;;;;;;;-1.63;85.43;100244.87;1766292;79;20947;-83
2022/01/16 00:22:45;;;;;;;15.97;7.43;;;;;;;-1.65;85.37;100229.93;1761862;81;21583;-83
2022/01/16 00:25:12;;;;;;;13.48;7.05;;;;;;;-1.66;85.33;100231.18;1769866;80;21018;-83
2022/01/16 00:27:39;;;;;;;15.98;8.05;;;;;;;-1.72;85.32;100244.78;1746026;81;21130;-83
2022/01/16 00:30:08;;;;;;;16.10;7.70;;;;;;;-1.73;85.40;100240.52;1762321;80;20988;-83
2022/01/16 00:32:34;;;;;;;17.02;8.38;;;;;;;-1.74;85.37;100243.04;1766048;80;20978;-83
2022/01/16 00:35:01;;;;;;;15.00;8.03;;;;;;;-1.76;85.43;100245.60;1768659;80;21538;-83
2022/01/16 00:37:28;;;;;;;15.05;7.75;;;;;;;-1.75;85.50;100249.87;1763416;80;20999;-83
2022/01/16 00:39:55;;;;;;;16.93;9.15;;;;;;;-1.73;85.51;100243.07;1767839;80;21450;-79
2022/01/16 00:42:21;;;;;;;15.90;9.05;;;;;;;-1.73;85.51;100245.63;1765964;80;21467;-83
2022/01/16 00:44:48;;;;;;;15.93;8.57;;;;;;;-1.74;85.45;100251.57;1767090;80;21002;-83
2022/01/16 00:47:15;;;;;;;15.70;9.37;;;;;;;-1.76;85.47;100248.16;1766354;80;21006;-83
2022/01/16 00:49:41;;;;;;;16.35;8.13;;;;;;;-1.74;85.58;100233.66;1766441;80;21014;-83
2022/01/16 00:52:10;;;;;;;14.43;7.75;;;;;;;-1.72;85.59;100237.09;1773325;79;21975;-83
2022/01/16 00:54:38;;;;;;;21.60;9.70;;;;;;;-1.73;85.58;100236.67;1768033;80;21545;-83
2022/01/16 00:57:05;;;;;;;18.10;9.38;;;;;;;-1.76;85.53;100217.44;1767385;80;21081;-84
2022/01/16 00:59:32;;;;;;;;;;;;;;;-1.75;85.60;100247.30;1769049;80;21007;-77
2022/01/16 01:02:00;;;;;;;15.68;8.25;;;;;;;-1.74;85.68;100235.36;1767208;80;20236;-83
2022/01/16 01:04:27;;;;;;;18.52;8.68;;;;;;;-1.76;85.68;100214.88;1770267;80;21873;-83
2022/01/16 01:06:55;;;;;;;19.57;8.80;;;;;;;-1.78;85.62;100238.31;1766644;80;21912;-83
2022/01/16 01:09:21;;;;;;;15.63;9.00;;;;;;;-1.78;85.69;100224.23;1762389;80;20990;-83
2022/01/16 01:11:50;;;;;;;18.67;8.85;;;;;;;-1.77;85.72;100238.74;1767501;80;20978;-82
2022/01/16 01:14:25;;;;;;;21.10;8.55;;;;;;;-1.76;85.69;100202.08;1762451;80;21038;-83
2022/01/16 01:16:51;;;;;;;17.15;8.45;;;;;;;-1.78;85.64;100214.00;1766222;79;21443;-84
2022/01/16 01:19:25;;;;;;;20.97;8.13;;;;;;;-1.77;85.72;100208.02;1767209;80;21024;-84
2022/01/16 01:21:51;;;;;;;16.30;8.63;;;;;;;-1.75;85.78;100197.81;1769032;80;21489;-84
2022/01/16 01:24:18;;;;;;;21.40;9.40;;;;;;;-1.74;85.79;100183.73;1747131;81;21568;-83
2022/01/16 01:26:54;;;;;;;14.87;7.40;;;;;;;-1.72;85.86;100193.58;1738402;81;21658;-84
2022/01/16 01:29:19;;;;;;;19.05;8.75;;;;;;;-1.71;85.76;100179.95;1726684;82;21284;-84
2022/01/16 01:31:44;;;;;;;22.75;10.58;;;;;;;-1.72;85.74;100183.33;1735849;82;21036;-84
2022/01/16 01:34:11;;;;;;;13.68;8.55;;;;;;;-1.73;85.79;100185.47;1754476;81;21028;-84
2022/01/16 01:36:37;;;;;;;15.70;8.95;;;;;;;-1.72;85.76;100176.94;1735490;82;21488;-83
2022/01/16 01:39:04;;;;;;;21.23;9.93;;;;;;;-1.70;85.90;100163.73;1740044;81;21133;-84
2022/01/16 01:41:31;;;;;;;21.07;10.20;;;;;;;-1.66;85.87;100164.19;1736723;82;21898;-83
2022/01/16 01:52:23;;;;;;;21.37;10.70;;;;;;;-1.66;85.87;100162.05;1742877;81;21551;-83
2022/01/16 01:54:51;;;;;;;27.52;10.90;;;;;;;-1.66;85.98;100166.74;1764871;79;21455;-83
2022/01/16 01:57:18;;;;;;;20.15;10.50;;;;;;;-1.65;86.01;100130.50;1743724;81;21116;-82
2022/01/16 01:59:45;;;;;;;19.82;10.85;;;;;;;-1.64;86.04;100135.62;1761793;81;20957;-83
2022/01/16 02:02:12;;;;;;;29.55;11.60;;;;;;;-1.63;86.02;100106.59;1762172;79;21065;-82
2022/01/16 02:04:38;;;;;;;23.40;10.55;;;;;;;-1.63;86.11;100032.34;1760451;81;20938;-82
2022/01/16 02:07:05;;;;;;;16.73;8.95;;;;;;;-1.60;86.14;100034.95;1766053;81;21111;-82
2022/01/16 02:09:33;;;;;;;18.98;9.95;;;;;;;-1.58;86.24;100022.99;1754961;81;21032;-83
2022/01/16 02:12:02;;;;;;;26.05;11.25;;;;;;;-1.56;86.17;100029.84;1756039;81;20957;-82
2022/01/16 02:14:34;;;;;;;21.45;10.30;;;;;;;-1.55;86.17;100032.83;1772144;79;22394;-82
2022/01/16 02:36:31;;;;;;;25.92;11.73;;;;;;;-1.44;86.36;100068.33;1750709;80;20943;-83
2022/01/16 02:39:00;;;;;;;22.30;11.28;;;;;;;-1.41;86.39;100050.42;1726267;81;20957;-84
2022/01/16 02:41:27;;;;;;;20.20;10.40;;;;;;;-1.41;86.41;100053.84;1762875;81;21044;-84
2022/01/16 02:43:56;;;;;;;32.42;12.98;;;;;;;-1.42;86.37;100063.66;1762764;80;21130;-84
2022/01/16 02:48:49;;;;;;;23.53;11.80;;;;;;;-1.38;86.51;100079.89;1745970;81;21032;-83
2022/01/16 02:51:20;;;;;;;23.23;11.63;;;;;;;-1.39;86.47;100072.64;1730356;81;21009;-83
2022/01/16 02:53:48;;;;;;;25.30;12.28;;;;;;;-1.38;86.51;100064.53;1762387;81;21661;-83
2022/01/16 02:56:17;;;;;;;21.97;11.70;;;;;;;-1.33;86.64;100075.67;1763401;80;20990;-83
2022/01/16 02:58:46;;;;;;;24.90;10.93;;;;;;;-1.33;86.59;100076.95;1763637;81;21894;-83
2022/01/16 03:01:14;;;;;;;20.55;10.48;;;;;;;-1.31;86.56;100067.58;1733907;81;21615;-83
2022/01/16 03:03:43;;;;;;;24.12;10.53;;;;;;;-1.31;86.51;100058.61;1760073;80;20959;-83
2022/01/16 03:06:10;;;;;;;24.63;10.30;;;;;;;-1.30;86.62;100079.53;1764771;80;21068;-83
2022/01/16 03:08:37;;;;;;;23.02;10.80;;;;;;;-1.28;86.69;100072.72;1739569;81;20953;-83
2022/01/16 03:13:33;;;;;;;23.45;12.15;;;;;;;-1.23;86.69;100056.95;1741120;81;21025;-82
2022/01/16 03:16:01;;;;;;;23.10;10.43;;;;;;;-1.19;86.74;100057.39;1756120;81;20975;-82
2022/01/16 03:23:39;;;;;;;21.65;9.45;;;;;;;-1.15;86.80;100048.89;1665313;84;21130;-83
2022/01/16 03:26:06;;;;;;;24.05;10.40;;;;;;;-1.18;86.80;100045.00;1717211;82;21168;-83
2022/01/16 03:28:32;;;;;;;16.70;8.30;;;;;;;-1.16;86.91;100039.47;1725395;82;21613;-83
2022/01/16 03:30:59;;;;;;;21.37;9.37;;;;;;;-1.14;86.91;100040.34;1700100;82;21077;-83
2022/01/16 03:33:26;;;;;;;19.32;8.85;;;;;;;-1.12;86.94;100037.80;1729917;82;21110;-83
2022/01/16 03:35:53;;;;;;;20.77;10.20;;;;;;;-1.10;86.91;100040.36;1710983;82;21312;-83
2022/01/16 03:38:20;;;;;;;20.08;8.93;;;;;;;-1.15;86.85;100038.64;1723244;82;20964;-83
2022/01/16 03:40:47;;;;;;;20.60;10.10;;;;;;;-1.16;86.95;100022.81;1699317;82;21154;-83
2022/01/16 03:43:14;;;;;;;19.25;9.85;;;;;;;-1.15;86.99;100007.89;1720410;82;21761;-83
2022/01/16 03:45:43;;;;;;;;;;;;;;;-1.13;86.99;100006.17;1724736;82;22456;-83
2022/01/16 03:48:09;;;;;;;19.90;9.80;;;;;;;-1.14;87.00;100004.47;1720893;82;21904;-84
2022/01/16 03:50:37;;;;;;;15.40;8.85;;;;;;;-1.14;87.03;99993.37;1719532;82;21037;-82
2022/01/16 03:53:04;;;;;;;17.40;8.80;;;;;;;-1.17;86.98;99999.33;1695520;82;21140;-80
2022/01/16 03:55:33;;;;;;;17.27;9.03;;;;;;;-1.17;87.08;99999.33;1682106;82;21107;-83
2022/01/16 03:58:00;;;;;;;14.70;7.97;;;;;;;-1.14;87.16;99991.66;1744273;80;21077;-84
2022/01/16 04:00:27;;;;;;;17.75;8.45;;;;;;;-1.11;87.20;99986.13;1779155;79;22626;-83
2022/01/16 04:02:54;;;;;;;19.85;9.63;;;;;;;-1.11;87.20;99975.44;1767682;79;21780;-84
2022/01/16 04:05:21;;;;;;;14.73;8.65;;;;;;;-1.09;87.23;99977.99;1763482;79;21024;-83
2022/01/16 04:07:48;;;;;;;16.57;7.78;;;;;;;-1.05;87.32;99972.05;1747092;81;20918;-83
2022/01/16 04:10:14;;;;;;;16.67;7.80;;;;;;;-1.03;87.30;99966.51;1776128;79;21149;-83
2022/01/16 04:12:44;;;;;;;17.70;7.57;;;;;;;-1.02;87.29;99956.25;1761393;80;21975;-84
2022/01/16 04:17:42;;;;;;;15.60;7.25;;;;;;;-1.02;87.24;99943.86;1774336;79;20961;-82
2022/01/16 04:20:15;;;;;;;11.85;6.85;;;;;;;-1.05;87.21;99938.30;1762062;80;21056;-83
2022/01/16 04:22:39;;;;;;;14.70;6.85;;;;;;;-1.05;87.25;99932.32;1772712;79;21558;-83
2022/01/16 04:25:07;;;;;;;14.63;6.72;;;;;;;-1.03;87.33;99934.47;1762758;79;21568;-83
2022/01/16 04:27:35;;;;;;;15.83;6.65;;;;;;;-1.01;87.42;99923.77;1755512;81;21034;-83
2022/01/16 04:30:01;;;;;;;11.65;6.55;;;;;;;-0.99;87.43;99929.77;1748463;81;21001;-83
2022/01/16 04:32:28;;;;;;;13.97;6.23;;;;;;;-0.99;87.37;99929.34;1775929;79;21537;-83
2022/01/16 04:34:55;;;;;;;12.35;6.60;;;;;;;-0.98;87.44;99925.06;1774370;79;21147;-83
2022/01/16 04:37:22;;;;;;;21.23;7.55;;;;;;;-0.97;87.40;99921.23;1784193;79;21543;-83
2022/01/16 04:39:51;;;;;;;12.05;6.12;;;;;;;-0.97;87.38;99916.55;1759238;79;21075;-83
2022/01/16 04:45:07;;;;;;;11.95;6.83;;;;;;;-0.97;87.42;99912.27;1754790;79;21094;-82
2022/01/16 04:47:34;;;;;;;14.70;6.90;;;;;;;-0.94;87.54;99913.98;1778417;79;21046;-83
2022/01/16 04:50:01;;;;;;;13.83;7.87;;;;;;;-0.93;87.55;99908.84;1760307;81;21417;-83
2022/01/16 04:52:28;;;;;;;11.57;6.50;;;;;;;-0.92;87.51;99918.27;1760108;80;21388;-83
2022/01/16 04:54:55;;;;;;;10.75;5.47;;;;;;;-0.92;87.51;99916.98;1758526;80;20944;-83
2022/01/16 04:57:22;;;;;;;10.13;5.67;;;;;;;-0.91;87.58;99917.83;1749705;79;20973;-83
2022/01/16 04:59:49;;;;;;;14.03;6.30;;;;;;;-0.90;87.60;99910.56;1753130;81;21334;-84
2022/01/16 05:02:15;;;;;;;15.35;6.67;;;;;;;-0.91;87.63;99895.61;1767197;80;21505;-82
2022/01/16 05:04:45;;;;;;;13.00;6.10;;;;;;;-0.89;87.63;99886.66;1763951;79;21544;-83
2022/01/16 05:07:12;;;;;;;14.05;7.45;;;;;;;-0.84;87.70;99899.47;1747525;81;24528;-83
2022/01/16 05:09:39;;;;;;;11.78;6.15;;;;;;;-0.84;87.66;99888.81;1774858;79;21057;-83
2022/01/16 05:12:12;;;;;;;12.87;6.50;;;;;;;-0.83;87.66;99885.38;1780206;79;20996;-83
2022/01/16 05:17:22;;;;;;;15.35;7.50;;;;;;;-0.79;87.72;99878.11;1779401;79;20918;-84
2022/01/16 05:19:48;;;;;;;13.72;6.45;;;;;;;-0.80;87.63;99873.84;1731232;81;21585;-85
2022/01/16 05:22:15;;;;;;;14.47;6.93;;;;;;;-0.80;87.62;99873.00;1764029;79;21036;-82
2022/01/16 05:24:42;;;;;;;14.75;6.87;;;;;;;-0.82;87.68;99865.29;1760221;81;20973;-84
2022/01/16 05:27:10;;;;;;;14.70;7.15;;;;;;;-0.84;87.63;99861.89;1708241;81;22280;-85
2022/01/16 05:29:36;;;;;;;14.63;7.40;;;;;;;-0.83;87.70;99866.16;1750704;81;21028;-83
2022/01/16 05:32:05;;;;;;;16.73;7.78;;;;;;;-0.82;87.72;99862.73;1733498;80;21093;-83
2022/01/16 05:34:32;;;;;;;18.35;8.68;;;;;;;-0.79;87.76;99852.47;1731678;80;20960;-84
2022/01/16 05:36:59;;;;;;;15.13;7.65;;;;;;;-0.79;87.73;99847.34;1707027;81;21023;-84
2022/01/16 05:39:26;;;;;;;16.48;7.60;;;;;;;-0.79;87.74;99847.34;1748612;81;22347;-83
2022/01/16 05:41:53;;;;;;;15.60;8.25;;;;;;;-0.76;87.85;99847.34;1755440;80;21919;-84
2022/01/16 05:44:20;;;;;;;13.00;7.53;;;;;;;-0.75;87.79;99841.37;1770110;80;20943;-81
2022/01/16 05:46:47;;;;;;;15.72;8.25;;;;;;;-0.76;87.73;99842.64;1746785;80;22257;-80
2022/01/16 05:49:14;;;;;;;12.30;7.78;;;;;;;-0.77;87.80;99817.44;1768329;79;21114;-79
2022/01/16 05:51:41;;;;;;;12.80;7.05;;;;;;;-0.76;87.83;99806.31;1743126;81;21532;-80
2022/01/16 05:54:08;;;;;;;20.80;8.17;;;;;;;-0.79;87.73;99812.73;1752844;80;21063;-83
2022/01/16 05:56:35;;;;;;;16.47;8.77;;;;;;;-0.85;87.94;99798.64;1746870;81;20957;-83
2022/01/16 05:59:01;;;;;;;18.17;9.10;;;;;;;-0.85;87.94;99798.64;1749199;81;21418;-83
2022/01/16 06:01:28;;;;;;;14.77;8.53;;;;;;;-0.74;87.92;99817.44;1726869;81;21288;-81
2022/01/16 06:03:55;;;;;;;13.28;7.45;;;;;;;-0.71;88.03;99814.88;1730889;81;21187;-84
2022/01/16 06:06:22;;;;;;;17.60;8.97;;;;;;;-0.68;88.02;99820.00;1746714;81;21741;-83
2022/01/16 06:08:49;;;;;;;19.85;10.05;;;;;;;-0.72;87.88;99811.89;1748614;81;20993;-83
2022/01/16 06:11:16;;;;;;;16.67;9.63;;;;;;;-0.72;87.90;99814.45;1729698;81;21033;-81
2022/01/16 06:13:45;;;;;;;19.73;10.48;;;;;;;-0.73;87.94;99814.04;1754622;81;21840;-78
2022/01/16 06:16:16;;;;;;;16.95;9.68;;;;;;;-0.74;87.95;99814.88;1748565;81;21624;-79
2022/01/16 06:18:42;;;;;;;25.57;11.35;;;;;;;-0.74;88.04;99813.59;1751954;81;21165;-84
2022/01/16 06:21:10;;;;;;;25.67;10.83;;;;;;;-0.77;87.92;99822.56;1747050;81;21148;-82
2022/01/16 06:23:37;;;;;;;20.60;11.05;;;;;;;-0.80;87.93;99822.57;1721460;81;21278;-82
2022/01/16 06:26:04;;;;;;;22.23;11.27;;;;;;;-0.84;87.98;99820.88;1763066;79;20965;-82
2022/01/16 06:28:31;;;;;;;26.27;11.68;;;;;;;-0.83;88.05;99807.62;1777346;79;21508;-82
2022/01/16 06:30:59;;;;;;;13.45;9.05;;;;;;;-0.85;88.05;99808.04;1781295;79;21067;-79
2022/01/16 06:33:27;;;;;;;25.25;12.25;;;;;;;-0.89;88.06;99807.20;1759284;80;21050;-82
2022/01/16 06:35:56;;;;;;;21.60;10.85;;;;;;;-0.87;88.18;99795.20;1756115;79;21087;-83
2022/01/16 06:38:24;;;;;;;18.85;12.82;;;;;;;-0.86;88.16;99807.19;1734588;81;21024;-83
2022/01/16 06:40:50;;;;;;;21.62;11.38;;;;;;;-0.86;88.12;99803.34;1779338;79;21067;-84
2022/01/16 06:43:17;;;;;;;25.43;13.15;;;;;;;-0.86;88.08;99803.78;1781104;79;21095;-84
2022/01/16 06:45:44;;;;;;;22.75;11.63;;;;;;;-0.87;88.12;99797.77;1780340;79;21041;-84
2022/01/16 06:48:11;;;;;;;20.20;12.70;;;;;;;-0.89;88.08;99790.53;1786210;79;21090;-84
2022/01/16 06:50:38;;;;;;;26.60;13.80;;;;;;;-0.90;88.16;99790.09;1774726;79;21045;-82
2022/01/16 06:53:04;;;;;;;23.62;13.68;;;;;;;-0.92;88.13;99784.12;1777005;79;21585;-83
2022/01/16 06:55:33;;;;;;;25.92;13.35;;;;;;;-0.90;88.29;99779.83;1778331;79;22006;-84
2022/01/16 06:57:59;;;;;;;21.55;11.83;;;;;;;-0.89;88.29;99777.72;1776303;79;21123;-84
2022/01/16 07:00:26;;;;;;;19.87;11.83;;;;;;;-0.90;88.32;99788.80;1780853;79;21178;-84
2022/01/16 08:04:20;;;;;;;31.50;12.47;;;;;;;-0.62;88.73;99750.33;1141700;122;21373;-79
2022/01/16 08:08:03;;;;;;;23.90;11.10;;;;;;;-0.58;88.63;99751.62;1143497;121;21305;-76
2022/01/16 08:10:41;;;;;;;25.32;11.43;;;;;;;-0.55;88.71;99754.61;1145043;121;21306;-81
2022/01/16 08:13:08;;;;;;;23.20;11.97;;;;;;;-0.52;88.71;99753.31;1149941;122;21350;-82
2022/01/16 08:15:35;;;;;;;22.77;11.10;;;;;;;-0.48;88.68;99747.31;1164455;121;21707;-84
2022/01/16 08:18:05;;;;;;;25.43;11.17;;;;;;;-0.46;88.61;99736.63;1170197;119;21283;-85
2022/01/16 08:20:33;;;;;;;22.65;10.35;;;;;;;-0.49;88.51;99730.22;1178594;120;21362;-84
2022/01/16 08:23:02;;;;;;;22.25;10.90;;;;;;;-0.49;88.51;99728.94;1174874;119;21233;-84
2022/01/16 08:25:29;;;;;;;22.90;9.70;;;;;;;-0.43;88.60;99727.64;1181672;116;38153;-80
2022/01/16 08:27:56;;;;;;;16.42;10.20;;;;;;;-0.43;88.60;99727.64;1280230;108;21327;-81
2022/01/16 08:30:23;;;;;;;19.00;10.40;;;;;;;-0.41;88.62;99724.65;1305934;104;21206;-79
2022/01/16 08:32:51;;;;;;;24.27;10.15;;;;;;;-0.38;88.62;99727.20;1368729;103;21165;-78
2022/01/16 08:36:49;;;;;;;24.20;10.70;;;;;;;-0.31;88.58;99708.38;1839926;75;22081;-84
2022/01/16 08:39:16;;;;;;;17.90;10.58;;;;;;;-0.28;88.73;99710.94;1817490;77;20994;-83
2022/01/16 08:41:43;;;;;;;26.07;10.58;;;;;;;-0.25;88.59;99707.07;1816062;77;22139;-83
2022/01/16 08:44:10;;;;;;;22.80;10.88;;;;;;;-0.20;88.65;99707.47;1787197;78;20985;-83
2022/01/16 08:46:36;;;;;;;20.62;10.80;;;;;;;-0.17;88.59;99707.02;1791435;78;24468;-82
2022/01/16 08:49:05;;;;;;;25.65;10.88;;;;;;;-0.16;88.48;99705.33;1818530;77;21674;-83
2022/01/16 08:51:32;;;;;;;23.80;9.93;;;;;;;-0.12;88.55;99707.86;1816115;77;21083;-83
2022/01/16 08:53:59;;;;;;;19.48;10.80;;;;;;;-0.03;88.73;99699.26;1785434;78;21207;-83
2022/01/16 08:56:25;;;;;;;25.92;9.78;;;;;;;0.03;88.56;99688.98;1765159;78;185646;-83
2022/01/16 08:59:30;;;;;;;26.90;10.20;;;;;;;0.15;88.51;99676.07;1861972;75;22717;-82
2022/01/16 09:01:57;;;;;;;24.55;10.45;;;;;;;0.13;88.30;99670.09;1843285;76;21028;-83
2022/01/16 09:04:50;;;;;;;25.52;10.30;;;;;;;0.14;88.35;99674.38;1835533;76;21141;-84
2022/01/16 09:07:20;;;;;;;26.25;10.93;;;;;;;0.14;88.41;99666.67;1844642;76;20995;-82
2022/01/16 09:09:49;;;;;;;28.30;10.58;;;;;;;0.20;88.42;99648.66;1839405;76;21004;-78
2022/01/16 09:12:17;;;;;;;22.00;10.17;;;;;;;0.24;88.30;99644.78;1841344;76;21121;-83
2022/01/16 09:14:45;;;;;;;22.65;9.05;;;;;;;0.26;88.31;99636.64;1841589;76;20979;-84
2022/01/16 09:17:11;;;;;;;21.80;9.07;;;;;;;0.25;88.01;99634.92;1843130;76;21055;-84
2022/01/16 09:19:38;;;;;;;21.80;8.80;;;;;;;0.25;88.01;99634.92;1837894;76;21950;-84
2022/01/16 09:22:05;;;;;;;23.57;8.90;;;;;;;0.31;88.33;99632.30;1838671;76;28341;-83
2022/01/16 09:24:33;;;;;;;27.20;9.40;;;;;;;0.33;88.11;99631.88;1835163;76;21067;-84
2022/01/16 09:27:00;;;;;;;19.60;8.68;;;;;;;0.30;88.03;99619.05;1842730;77;20963;-84
2022/01/16 09:29:30;;;;;;;19.40;7.83;;;;;;;0.32;88.13;99618.62;1840544;76;21901;-83
2022/01/16 09:31:58;;;;;;;23.52;8.73;;;;;;;0.35;88.10;99625.02;1800955;77;20979;-83
2022/01/16 09:34:25;;;;;;;20.77;9.03;;;;;;;0.35;88.05;99616.02;1833289;76;20927;-84
2022/01/16 09:36:52;;;;;;;22.17;7.53;;;;;;;0.34;88.02;99616.90;1829664;76;22152;-83
2022/01/16 09:39:18;;;;;;;20.60;7.40;;;;;;;0.32;87.89;99613.48;1833637;76;21046;-83
2022/01/16 09:41:45;;;;;;;17.45;7.75;;;;;;;0.30;87.86;99612.63;1838459;77;21065;-83
2022/01/16 09:44:17;;;;;;;17.57;7.40;;;;;;;0.27;87.86;99604.95;1837140;76;20973;-83
2022/01/16 09:46:44;;;;;;;20.72;7.35;;;;;;;0.19;87.81;99600.71;1830913;77;21051;-83
2022/01/16 09:49:11;;;;;;;21.97;9.83;;;;;;;0.19;87.99;99605.84;1843026;76;21006;-83
2022/01/16 09:51:38;;;;;;;18.00;7.62;;;;;;;0.17;87.91;99599.05;1835939;76;21053;-83
2022/01/16 09:54:05;;;;;;;15.45;8.33;;;;;;;0.15;87.95;99603.33;1841156;76;21053;-83
2022/01/16 09:56:33;;;;;;;26.40;10.08;;;;;;;0.12;87.94;99611.06;1831783;77;21551;-84
2022/01/16 09:58:59;;;;;;;;;;;;;;;0.07;87.87;99613.64;1817796;76;20973;-84
2022/01/16 10:01:26;;;;;;;29.60;9.53;;;;;;;0.05;88.02;99605.09;1838271;77;20176;-72
2022/01/16 10:03:53;;;;;;;23.62;9.98;;;;;;;0.02;88.06;99579.44;1836059;77;21164;-78
2022/01/16 10:06:23;;;;;;;24.10;10.32;;;;;;;0.06;88.13;99585.44;1801754;78;21012;-77
2022/01/16 10:08:54;;;;;;;29.35;10.88;;;;;;;0.08;88.13;99575.55;1799335;78;21020;-76
2022/01/16 10:14:54;;;;;;;24.52;9.78;;;;;;;0.13;87.88;99569.95;1841953;75;22640;-77
2022/01/16 10:17:24;;;;;;;23.20;11.00;;;;;;;0.04;87.75;99564.05;1824922;77;21780;-77
2022/01/16 10:20:06;;;;;;;20.77;10.55;;;;;;;0.01;87.91;99561.06;1816457;76;21097;-77
2022/01/16 10:22:43;;;;;;;24.70;11.00;;;;;;;-0.01;87.92;99551.23;1825777;76;21593;-78
2022/01/16 10:25:17;;;;;;;22.10;10.58;;;;;;;-0.01;87.85;99548.66;1800597;76;21034;-78
2022/01/16 10:27:46;;;;;;;22.20;9.55;;;;;;;-0.03;87.97;99547.81;1818238;76;21000;-77
2022/01/16 10:30:18;;;;;;;28.77;9.95;;;;;;;0.00;87.96;99547.83;1819546;76;21056;-78
2022/01/16 10:32:47;;;;;;;21.15;9.55;;;;;;;-0.03;87.84;99544.84;1817048;76;21116;-77
2022/01/16 10:35:28;;;;;;;15.93;8.75;;;;;;;-0.03;87.88;99547.81;1825216;76;21483;-77
2022/01/16 10:37:59;;;;;;;19.42;9.70;;;;;;;-0.03;87.84;99542.69;1825308;77;21082;-76
2022/01/16 10:40:40;;;;;;;21.65;9.00;;;;;;;-0.01;87.84;99540.53;1828367;78;22281;-74
2022/01/16 10:43:16;;;;;;;17.67;8.93;;;;;;;0.02;87.87;99543.50;1824004;78;20971;-76
2022/01/16 10:45:51;;;;;;;22.90;9.03;;;;;;;0.00;87.63;99528.58;1824471;76;21964;-75
2022/01/16 10:50:51;;;;;;;20.48;9.98;;;;;;;0.07;87.82;99522.95;1852612;75;22712;-76
2022/01/16 10:53:27;;;;;;;24.40;9.65;;;;;;;0.06;87.75;99534.94;1791058;77;21595;-77
2022/01/16 10:56:04;;;;;;;19.82;9.25;;;;;;;0.11;87.93;99535.76;1816643;77;21772;-77
2022/01/16 10:58:46;;;;;;;25.72;10.43;;;;;;;0.20;87.94;99538.25;1814619;77;21626;-77
2022/01/16 11:01:19;;;;;;;19.62;9.68;;;;;;;0.21;87.84;99537.37;1820112;77;20891;-77
2022/01/16 11:03:58;;;;;;;20.62;8.95;;;;;;;0.21;87.67;99523.69;1818904;77;20970;-77
2022/01/16 11:06:26;;;;;;;20.55;9.93;;;;;;;0.20;87.69;99522.84;1816399;77;21067;-79
2022/01/16 11:09:14;;;;;;;23.98;11.18;;;;;;;0.19;87.75;99518.55;1814176;77;21070;-78
2022/01/16 11:11:32;;;;;;;18.17;9.80;;;;;;;0.19;87.78;99518.98;1786419;77;20993;-78
2022/01/16 11:14:04;;;;;;;16.93;8.60;;;;;;;0.19;87.81;99518.55;1811340;77;21490;-77
2022/01/16 11:16:28;;;;;;;21.65;9.73;;;;;;;0.20;87.78;99499.73;1820784;77;21568;-85
2022/01/16 11:18:58;;;;;;;17.27;8.48;;;;;;;0.19;87.79;99498.00;1790505;78;21020;-79
2022/01/16 11:21:34;;;;;;;19.10;8.45;;;;;;;0.17;87.65;99488.20;1816983;77;21211;-79
2022/01/16 11:26:43;;;;;;;24.98;8.93;;;;;;;0.13;87.52;99480.09;1818340;77;21556;-75
2022/01/16 11:29:13;;;;;;;22.60;7.65;;;;;;;0.09;87.29;99470.73;1797019;78;21143;-76
2022/01/16 11:31:43;;;;;;;22.07;8.23;;;;;;;0.07;87.55;99464.75;1820506;77;20993;-77
2022/01/16 11:34:11;;;;;;;20.90;9.80;;;;;;;0.10;87.51;99462.15;1795704;78;21948;-75
2022/01/16 11:36:40;;;;;;;;;;;;;;;0.10;87.40;99457.02;1819761;77;20973;-76
2022/01/16 11:39:11;;;;;;;21.55;9.00;;;;;;;0.12;87.41;99451.88;1818058;77;20445;-80
2022/01/16 11:41:57;;;;;;;19.10;8.30;;;;;;;0.12;87.50;99439.89;1817371;77;21126;-77
2022/01/16 11:44:28;;;;;;;20.48;8.93;;;;;;;0.15;87.50;99429.59;1789513;78;20990;-74
2022/01/16 11:46:59;;;;;;;18.57;7.80;;;;;;;0.16;87.39;99429.99;1819669;77;21089;-75
2022/01/16 11:49:47;;;;;;;19.42;7.47;;;;;;;0.17;87.39;99427.86;1822057;77;21341;-75
2022/01/16 11:52:31;;;;;;;21.23;7.53;;;;;;;0.18;87.39;99419.28;1790054;77;20965;-75
2022/01/16 11:54:59;;;;;;;16.52;8.25;;;;;;;0.17;87.35;99404.76;1821107;76;21007;-76
2022/01/16 11:57:29;;;;;;;20.95;8.20;;;;;;;0.16;87.32;99395.77;1823217;77;21066;-74
2022/01/16 12:00:15;;;;;;;21.12;7.70;;;;;;;0.15;87.21;99391.08;1818329;77;21279;-75
2022/01/16 12:02:48;;;;;;;20.03;6.97;;;;;;;0.18;87.34;99391.05;1822775;77;20981;-75
2022/01/16 12:05:31;;;;;;;22.48;7.67;;;;;;;0.19;87.28;99395.30;1821243;77;21446;-75
2022/01/16 12:08:10;;;;;;;24.27;7.80;;;;;;;0.23;87.31;99388.88;1823699;77;21004;-75
2022/01/16 12:10:46;;;;;;;20.27;7.12;;;;;;;0.19;87.01;99384.19;1820487;77;22672;-74
2022/01/16 12:13:49;;;;;;;17.35;7.22;;;;;;;0.17;87.02;99382.94;1798706;78;21051;-75
2022/01/16 12:16:43;;;;;;;22.77;7.58;;;;;;;0.15;87.06;99370.54;1821289;77;21012;-75
2022/01/16 12:19:46;;;;;;;20.55;8.10;;;;;;;0.15;87.23;99374.39;1818115;77;21028;-76
2022/01/16 12:22:17;;;;;;;19.50;7.40;;;;;;;0.17;87.32;99377.80;1795243;77;21012;-75
2022/01/16 12:24:49;;;;;;;17.07;8.25;;;;;;;0.18;87.07;99349.96;1773021;78;21077;-76
2022/01/16 12:27:34;;;;;;;23.60;7.97;;;;;;;0.17;87.14;99343.14;1793574;77;21049;-73
2022/01/16 12:30:17;;;;;;;25.77;9.00;;;;;;;0.23;87.21;99328.53;1819932;77;21005;-74
2022/01/16 12:32:51;;;;;;;24.50;9.97;;;;;;;0.27;87.27;99330.19;1815949;77;21011;-75
2022/01/16 12:35:50;;;;;;;27.22;9.78;;;;;;;0.32;87.40;99324.56;1809690;77;21033;-74
2022/01/16 12:38:27;;;;;;;26.15;10.55;;;;;;;0.33;87.18;99314.26;1823452;77;21582;-74
2022/01/16 12:41:23;;;;;;;28.42;10.30;;;;;;;0.33;87.12;99310.84;1823400;76;21063;-76
2022/01/16 12:43:57;;;;;;;22.70;9.40;;;;;;;0.38;87.31;99307.80;1799736;78;20967;-76
2022/01/16 12:46:41;;;;;;;24.43;8.85;;;;;;;0.38;87.04;99301.38;1786608;78;20965;-77
2022/01/16 12:49:19;;;;;;;28.02;9.88;;;;;;;0.37;86.96;99291.98;1786311;77;21719;-76
2022/01/16 12:51:53;;;;;;;22.17;9.95;;;;;;;0.39;87.13;99286.36;1752077;78;21034;-77
2022/01/16 12:54:27;;;;;;;27.27;10.53;;;;;;;0.38;86.88;99278.25;1794288;77;21188;-77
2022/01/16 12:56:59;;;;;;;21.12;8.85;;;;;;;0.35;86.89;99256.47;1819519;77;20965;-76
2022/01/16 12:59:41;;;;;;;28.95;10.80;;;;;;;0.35;86.94;99248.77;1815814;77;21001;-76
2022/01/16 13:02:10;;;;;;;22.87;10.05;;;;;;;0.31;86.83;99255.67;1812731;77;21085;-76
2022/01/16 13:04:45;;;;;;;26.20;9.40;;;;;;;0.29;86.82;99250.14;1814405;77;21052;-76
2022/01/16 13:07:17;;;;;;;23.70;9.25;;;;;;;0.31;86.95;99241.95;1790615;78;21089;-76
2022/01/16 13:09:44;;;;;;;35.73;14.87;;;;;;;0.31;86.90;99241.95;1813858;77;21035;-76
2022/01/16 13:12:14;;;;;;;21.93;10.57;;;;;;;0.32;86.88;99235.97;1825881;77;20994;-76
2022/01/16 13:14:44;;;;;;;25.72;9.60;;;;;;;0.32;86.94;99232.95;1787647;77;21000;-76
2022/01/16 13:17:14;;;;;;;19.20;8.08;;;;;;;0.37;87.05;99226.48;1818869;77;21169;-76
2022/01/16 13:20:03;;;;;;;20.97;8.55;;;;;;;0.36;87.01;99225.61;1823429;76;21084;-76
2022/01/16 13:22:37;;;;;;;20.12;8.88;;;;;;;0.38;87.02;99220.47;1679395;83;20931;-75
2022/01/16 13:25:08;;;;;;;29.32;10.23;;;;;;;0.37;86.95;99221.35;1686901;83;21023;-74
2022/01/16 13:27:42;;;;;;;22.42;9.95;;;;;;;0.36;86.95;99199.93;1735177;80;20998;-75
2022/01/16 13:30:26;;;;;;;24.85;10.18;;;;;;;0.34;86.73;99216.26;1733460;80;21164;-74
2022/01/16 13:33:05;;;;;;;21.82;9.28;;;;;;;0.34;86.98;99214.98;1722959;81;22043;-74
2022/01/16 13:35:36;;;;;;;26.05;10.55;;;;;;;0.34;86.89;99203.42;1733382;81;22347;-74
2022/01/16 13:38:08;;;;;;;22.70;9.25;;;;;;;0.32;86.99;99212.86;1681909;81;21019;-74